Time;durP1;ratioP1;P1;durP2;ratioP2;P2;SDS_P1;SDS_P2;PMS_P1;PMS_P2;Temp;Humidity;BMP_temperature;BMP_pressure;BME280_temperature;BME280_humidity;BME280_pressure;Samples;Min_cycle;Max_cycle;Signal;HPM_P1;HPM_P2
2021/12/28 00:01:24;;;;;;;15.80;3.63;;;;;;;13.01;65.93;95605.00;4913378;28;20761;-82
2021/12/28 00:03:50;;;;;;;19.48;3.42;;;;;;;12.94;66.55;95596.81;4891529;28;20684;-82
2021/12/28 00:06:15;;;;;;;17.27;4.28;;;;;;;13.11;65.19;95596.16;4894866;28;20175;-82
2021/12/28 00:08:41;;;;;;;20.10;5.30;;;;;;;13.03;65.98;95602.09;4910442;28;20638;-82
2021/12/28 00:11:07;;;;;;;16.35;3.63;;;;;;;13.14;65.05;95605.97;4879158;28;20209;-82
2021/12/28 00:13:34;;;;;;;14.85;4.05;;;;;;;13.12;65.85;95597.69;4878616;28;20260;-82
2021/12/28 00:18:34;;;;;;;16.23;3.78;;;;;;;13.27;64.99;95592.06;4905465;28;20285;-82
2021/12/28 00:21:02;;;;;;;19.75;4.25;;;;;;;12.78;65.97;95599.00;4894090;28;20164;-81
2021/12/28 00:23:33;;;;;;;15.57;3.65;;;;;;;12.82;65.95;95597.34;4878503;28;20276;-82
2021/12/28 00:25:59;;;;;;;14.90;2.47;;;;;;;12.96;65.96;95596.53;4895033;28;20786;-82
2021/12/28 00:28:25;;;;;;;12.93;3.28;;;;;;;12.75;66.09;95594.38;4910191;28;20191;-82
2021/12/28 00:30:52;;;;;;;19.33;3.03;;;;;;;13.04;65.28;95595.78;4908442;28;20192;-83
2021/12/28 00:33:19;;;;;;;13.27;2.80;;;;;;;13.09;65.29;95590.44;4899794;28;20748;-83
2021/12/28 00:35:45;;;;;;;21.50;3.60;;;;;;;13.11;65.44;95596.91;4910977;28;20190;-82
2021/12/28 00:38:14;;;;;;;17.17;3.72;;;;;;;13.09;65.49;95578.16;4878386;28;20663;-82
2021/12/28 00:40:40;;;;;;;15.55;3.80;;;;;;;13.09;65.70;95577.38;4888435;28;20655;-82
2021/12/28 00:43:07;;;;;;;16.55;3.15;;;;;;;13.11;65.33;95578.63;4878041;28;20906;-83
2021/12/28 00:45:33;;;;;;;18.80;3.35;;;;;;;12.96;65.90;95579.00;4910974;28;20297;-81
2021/12/28 00:47:58;;;;;;;16.27;3.83;;;;;;;12.79;65.95;95569.22;4913151;28;20655;-82
2021/12/28 00:50:25;;;;;;;16.63;3.35;;;;;;;12.86;65.67;95560.97;4909909;28;20228;-83
2021/12/28 00:52:50;;;;;;;13.43;3.65;;;;;;;13.04;65.33;95559.22;4878334;28;20715;-82
2021/12/28 00:55:17;;;;;;;17.00;3.65;;;;;;;12.98;64.96;95555.19;4894334;28;20213;-83
2021/12/28 00:57:43;;;;;;;13.52;3.13;;;;;;;12.87;65.77;95560.66;4910474;28;20644;-82
2021/12/28 01:00:12;;;;;;;17.52;3.72;;;;;;;12.83;66.05;95558.94;4910079;28;20129;-82
2021/12/28 01:02:37;;;;;;;16.33;3.67;;;;;;;12.86;65.56;95566.19;4910367;28;20277;-82
2021/12/28 01:05:03;;;;;;;10.52;2.75;;;;;;;13.00;65.01;95560.88;4894651;28;20215;-82
2021/12/28 01:07:29;;;;;;;17.27;3.65;;;;;;;13.04;64.70;95557.38;4890949;28;20232;-82
2021/12/28 01:09:54;;;;;;;20.58;3.95;;;;;;;13.02;65.33;95554.31;4877757;28;20696;-83
2021/12/28 01:12:20;;;;;;;10.23;2.72;;;;;;;13.07;65.42;95551.56;4909054;28;20167;-82
2021/12/28 01:14:45;;;;;;;11.30;4.05;;;;;;;13.03;65.14;95552.44;4890586;28;20541;-82
2021/12/28 01:17:10;;;;;;;13.68;3.13;;;;;;;12.99;65.08;95552.28;4905861;28;20281;-82
2021/12/28 01:19:36;;;;;;;12.93;2.33;;;;;;;13.08;64.74;95536.66;4893525;28;20292;-82
2021/12/28 01:22:02;;;;;;;12.30;3.10;;;;;;;13.10;65.00;95548.31;4909963;28;20225;-81
2021/12/28 01:24:29;;;;;;;13.30;2.72;;;;;;;13.01;64.60;95544.91;4893172;28;20189;-82
2021/12/28 01:26:54;;;;;;;11.95;2.50;;;;;;;13.04;64.52;95549.53;4877531;28;20257;-82
2021/12/28 01:29:20;;;;;;;16.02;2.47;;;;;;;13.13;64.08;95544.34;4893241;28;20665;-81
2021/12/28 01:31:45;;;;;;;14.52;2.47;;;;;;;13.08;64.56;95549.72;4892932;28;20284;-83
2021/12/28 01:34:11;;;;;;;10.38;2.80;;;;;;;13.07;64.23;95545.53;4908652;28;20276;-81
2021/12/28 01:36:36;;;;;;;10.45;2.58;;;;;;;13.15;64.18;95539.59;4876902;28;20280;-82
2021/12/28 01:39:04;;;;;;;12.43;2.60;;;;;;;12.93;65.62;95541.16;4891274;28;20327;-82
2021/12/28 01:41:30;;;;;;;10.65;2.35;;;;;;;13.18;64.55;95546.84;4891831;28;20311;-81
2021/12/28 01:44:03;;;;;;;13.43;2.83;;;;;;;12.87;64.39;95534.53;4891503;28;20287;-82
2021/12/28 01:46:28;;;;;;;10.65;3.38;;;;;;;13.05;64.25;95529.41;4913138;28;20322;-82
2021/12/28 01:48:54;;;;;;;8.30;2.15;;;;;;;13.08;63.97;95528.81;4864560;28;20103;-82
2021/12/28 01:51:21;;;;;;;14.73;3.33;;;;;;;13.13;64.43;95520.06;4909490;28;20213;-82
2021/12/28 01:53:49;;;;;;;13.38;2.50;;;;;;;13.14;64.09;95521.59;4877075;28;20660;-81
2021/12/28 01:56:18;;;;;;;12.80;2.85;;;;;;;12.80;64.64;95513.31;4908985;28;20371;-82
2021/12/28 01:58:44;;;;;;;16.42;2.70;;;;;;;12.99;64.96;95507.09;4891610;28;20229;-82
2021/12/28 02:01:10;;;;;;;11.98;2.72;;;;;;;13.24;64.05;95501.19;4892715;28;20205;-81
2021/12/28 02:03:37;;;;;;;11.80;2.85;;;;;;;13.09;64.44;95514.66;4907276;28;20731;-82
2021/12/28 02:06:03;;;;;;;9.93;3.50;;;;;;;13.27;63.38;95508.44;4903193;28;20221;-82
2021/12/28 02:08:28;;;;;;;10.63;2.00;;;;;;;13.27;63.66;95507.66;4908858;28;20605;-82
2021/12/28 02:10:55;;;;;;;12.20;2.65;;;;;;;13.24;63.26;95495.97;4897298;28;20167;-81
2021/12/28 02:13:22;;;;;;;17.08;2.30;;;;;;;13.12;64.71;95487.94;4909042;28;20410;-81
2021/12/28 02:15:48;;;;;;;8.85;2.17;;;;;;;13.23;63.86;95488.41;4893403;28;20206;-82
2021/12/28 02:18:15;;;;;;;7.85;2.38;;;;;;;13.09;63.66;95484.09;4871612;28;20363;-82
2021/12/28 02:20:41;;;;;;;9.73;2.00;;;;;;;13.13;64.47;95480.88;4907670;28;20687;-82
2021/12/28 02:23:07;;;;;;;8.43;1.60;;;;;;;13.11;63.53;95476.72;4909092;28;20190;-82
2021/12/28 02:25:33;;;;;;;5.80;1.63;;;;;;;13.26;63.65;95477.38;4889870;28;20178;-82
2021/12/28 02:27:59;;;;;;;7.72;1.85;;;;;;;13.03;64.07;95476.69;4891064;28;20219;-82
2021/12/28 02:30:24;;;;;;;10.13;2.30;;;;;;;13.05;63.90;95474.53;4892778;28;20335;-82
2021/12/28 02:32:51;;;;;;;10.90;3.00;;;;;;;13.17;63.98;95463.50;4910898;28;20282;-82
2021/12/28 02:35:19;;;;;;;8.93;2.22;;;;;;;13.10;63.40;95474.41;4877088;28;20353;-81
2021/12/28 02:37:45;;;;;;;11.88;2.13;;;;;;;13.18;63.40;95481.50;4910175;28;20553;-82
2021/12/28 02:40:13;;;;;;;14.88;2.72;;;;;;;13.12;63.40;95480.09;4895305;28;20201;-82
2021/12/28 02:42:40;;;;;;;9.65;2.22;;;;;;;13.21;63.17;95472.28;4876714;28;20186;-81
2021/12/28 02:45:10;;;;;;;10.55;1.90;;;;;;;12.90;63.82;95460.81;4876851;28;20186;-82
2021/12/28 02:47:37;;;;;;;8.90;2.33;;;;;;;13.00;63.34;95470.22;4893164;28;20353;-82
2021/12/28 02:50:09;;;;;;;7.57;1.90;;;;;;;13.01;64.11;95461.31;4892105;28;20273;-82
2021/12/28 02:52:36;;;;;;;7.03;2.05;;;;;;;13.15;63.67;95458.59;4908750;28;20390;-83
2021/12/28 02:55:06;;;;;;;7.78;2.10;;;;;;;13.07;63.48;95454.88;4908782;28;20321;-82
2021/12/28 02:57:32;;;;;;;6.47;1.80;;;;;;;13.02;64.36;95446.41;4892603;28;20213;-82
2021/12/28 02:59:58;;;;;;;10.77;2.00;;;;;;;12.90;64.49;95439.91;4892258;28;20515;-83
2021/12/28 03:02:23;;;;;;;10.50;1.75;;;;;;;13.01;63.90;95439.66;4892981;28;20212;-83
2021/12/28 03:04:48;;;;;;;11.35;2.85;;;;;;;12.84;64.31;95433.28;4895250;28;20250;-83
2021/12/28 03:07:14;;;;;;;6.90;1.83;;;;;;;13.05;63.90;95435.34;4898982;28;20656;-82
2021/12/28 03:09:39;;;;;;;10.68;2.30;;;;;;;12.76;64.54;95428.78;4908053;28;20201;-82
2021/12/28 03:12:06;;;;;;;9.25;1.88;;;;;;;12.98;64.55;95424.56;4877090;28;20179;-83
2021/12/28 03:14:36;;;;;;;6.28;1.52;;;;;;;12.77;64.51;95430.31;4906825;28;20249;-83
2021/12/28 03:17:01;;;;;;;7.65;2.33;;;;;;;12.92;64.48;95422.09;4890182;28;20432;-83
2021/12/28 03:19:27;;;;;;;8.23;2.42;;;;;;;12.89;64.58;95414.84;4892202;28;20322;-83
2021/12/28 03:21:52;;;;;;;8.70;2.60;;;;;;;12.74;64.71;95413.41;4876487;28;20202;-83
2021/12/28 03:24:18;;;;;;;6.82;1.73;;;;;;;12.79;64.68;95409.13;4908689;28;20194;-84
2021/12/28 03:26:43;;;;;;;8.15;2.10;;;;;;;12.80;64.37;95405.44;4908765;28;20222;-83
2021/12/28 03:29:09;;;;;;;6.75;2.17;;;;;;;12.76;64.94;95407.13;4907967;28;20689;-83
2021/12/28 03:31:34;;;;;;;8.25;1.80;;;;;;;12.84;64.80;95399.31;4887547;28;20190;-83
2021/12/28 03:34:00;;;;;;;6.47;1.63;;;;;;;12.84;64.13;95395.94;4908172;28;20635;-83
2021/12/28 03:36:30;;;;;;;5.10;1.60;;;;;;;12.70;64.70;95383.75;4892822;28;20244;-82
2021/12/28 03:38:56;;;;;;;5.97;1.92;;;;;;;12.87;64.77;95388.28;4886258;28;20265;-83
2021/12/28 03:41:23;;;;;;;5.32;1.65;;;;;;;12.80;64.47;95374.88;4892616;28;20247;-82
2021/12/28 03:43:51;;;;;;;6.40;2.10;;;;;;;12.87;64.50;95374.44;4886352;28;20132;-83
2021/12/28 03:46:17;;;;;;;3.50;1.20;;;;;;;12.83;64.62;95368.28;4886153;28;20195;-83
2021/12/28 03:48:43;;;;;;;5.43;1.50;;;;;;;12.73;64.39;95361.47;4892915;28;20791;-83
2021/12/28 03:51:08;;;;;;;5.95;1.80;;;;;;;12.90;64.41;95358.16;4879325;28;20258;-82
2021/12/28 03:53:34;;;;;;;3.95;1.70;;;;;;;12.83;64.61;95357.84;4885698;28;20620;-82
2021/12/28 03:56:01;;;;;;;4.47;1.40;;;;;;;12.85;64.51;95358.28;4895301;28;20355;-82
2021/12/28 03:58:26;;;;;;;6.15;1.15;;;;;;;12.86;64.63;95349.41;4894763;28;20185;-82
2021/12/28 04:00:52;;;;;;;4.65;1.73;;;;;;;12.70;64.51;95349.06;4879723;28;20274;-83
2021/12/28 04:03:18;;;;;;;2.83;1.42;;;;;;;12.77;64.67;95346.75;4883376;28;20189;-82
2021/12/28 04:05:44;;;;;;;4.85;1.10;;;;;;;12.73;64.54;95340.59;4895318;28;20284;-82
2021/12/28 04:08:12;;;;;;;5.20;1.90;;;;;;;12.71;65.21;95342.75;4879096;28;20652;-82
2021/12/28 04:10:49;;;;;;;5.18;2.05;;;;;;;12.66;64.70;95337.66;4894722;28;20299;-82
2021/12/28 04:13:16;;;;;;;5.75;1.00;;;;;;;12.77;64.85;95346.75;4888805;28;20287;-81
2021/12/28 04:15:41;;;;;;;3.50;1.17;;;;;;;12.68;65.12;95338.13;4912390;28;20194;-82
2021/12/28 04:18:06;;;;;;;4.95;1.73;;;;;;;12.53;65.35;95337.47;4892829;28;20204;-82
2021/12/28 04:20:32;;;;;;;3.83;0.90;;;;;;;12.76;64.88;95337.38;4877471;28;20181;-82
2021/12/28 04:22:57;;;;;;;4.80;1.27;;;;;;;12.72;64.98;95320.78;4896813;28;20635;-82
2021/12/28 04:25:23;;;;;;;2.75;0.90;;;;;;;12.47;65.73;95330.06;4910318;28;20209;-83
2021/12/28 04:27:48;;;;;;;4.78;1.20;;;;;;;12.50;65.58;95326.84;4883516;28;20284;-81
2021/12/28 04:30:15;;;;;;;2.22;0.82;;;;;;;12.45;65.37;95329.59;4894311;28;20248;-82
2021/12/28 04:32:41;;;;;;;3.90;1.27;;;;;;;12.36;65.92;95321.75;4898941;28;20735;-80
2021/12/28 04:35:07;;;;;;;3.58;1.15;;;;;;;12.47;65.84;95330.06;4894963;28;20653;-81
2021/12/28 04:37:33;;;;;;;2.85;1.20;;;;;;;12.27;66.52;95319.09;4914494;28;20200;-81
2021/12/28 04:39:58;;;;;;;3.65;0.80;;;;;;;12.49;65.94;95315.66;4910244;28;20258;-81
2021/12/28 04:42:26;;;;;;;3.17;1.27;;;;;;;12.61;65.48;95322.13;4894606;28;20740;-82
2021/12/28 04:44:52;;;;;;;3.75;0.90;;;;;;;12.28;66.19;95315.41;4879053;28;20645;-82
2021/12/28 04:47:17;;;;;;;2.88;0.63;;;;;;;12.46;65.53;95312.88;4917104;28;20220;-81
2021/12/28 04:49:43;;;;;;;5.65;1.20;;;;;;;12.39;65.46;95312.53;4878024;28;20654;-81
2021/12/28 04:52:09;;;;;;;2.05;0.50;;;;;;;12.47;65.55;95312.56;4880291;28;20200;-81
2021/12/28 04:54:36;;;;;;;2.83;0.80;;;;;;;12.60;65.40;95310.16;4884635;28;20660;-81
2021/12/28 04:57:02;;;;;;;3.42;0.52;;;;;;;12.47;65.69;95315.16;4910478;28;20197;-82
2021/12/28 04:59:28;;;;;;;3.72;0.80;;;;;;;12.51;65.44;95305.69;4893221;28;20277;-80
2021/12/28 05:01:53;;;;;;;2.50;0.77;;;;;;;12.51;64.76;95302.31;4893368;28;20171;-81
2021/12/28 05:04:18;;;;;;;3.15;0.88;;;;;;;12.51;65.44;95300.47;4910000;28;20367;-81
2021/12/28 05:06:44;;;;;;;2.47;0.70;;;;;;;12.52;65.58;95291.53;4927817;28;20092;-82
2021/12/28 05:09:11;;;;;;;1.40;0.88;;;;;;;12.47;65.49;95285.69;4909464;28;20762;-80
2021/12/28 05:11:39;;;;;;;3.13;0.60;;;;;;;12.59;64.80;95283.25;4893828;28;20116;-81
2021/12/28 05:14:05;;;;;;;2.72;0.55;;;;;;;12.69;64.72;95279.59;4876479;28;20648;-81
2021/12/28 05:16:33;;;;;;;1.60;0.88;;;;;;;12.69;64.66;95269.16;4874644;28;20336;-81
2021/12/28 05:18:59;;;;;;;2.30;0.70;;;;;;;12.62;64.50;95266.25;4889283;28;20248;-81
2021/12/28 05:21:25;;;;;;;2.15;0.75;;;;;;;12.60;64.84;95261.31;4908416;28;20230;-81
2021/12/28 05:23:51;;;;;;;1.88;0.60;;;;;;;12.57;64.83;95261.16;4873110;28;20265;-81
2021/12/28 05:26:16;;;;;;;1.05;0.40;;;;;;;12.51;65.39;95263.91;4909630;28;20190;-81
2021/12/28 05:28:43;;;;;;;3.50;1.30;;;;;;;12.47;65.63;95260.34;4892364;28;20216;-82
2021/12/28 05:31:09;;;;;;;2.50;0.85;;;;;;;12.55;64.78;95257.00;4889589;28;20274;-83
2021/12/28 05:33:34;;;;;;;1.20;0.70;;;;;;;12.61;65.04;95249.03;4892473;28;20365;-81
2021/12/28 05:36:00;;;;;;;4.07;0.50;;;;;;;12.50;64.69;95244.09;4877047;28;20102;-82
2021/12/28 05:38:25;;;;;;;0.85;0.32;;;;;;;12.44;64.97;95241.91;4905311;28;20406;-83
2021/12/28 05:40:50;;;;;;;2.03;0.50;;;;;;;12.51;65.46;95239.66;4892989;28;20610;-83
2021/12/28 05:43:16;;;;;;;2.67;0.60;;;;;;;12.31;65.39;95235.75;4877479;28;20264;-82
2021/12/28 05:45:43;;;;;;;1.05;0.30;;;;;;;12.43;65.28;95229.97;4899812;28;20656;-82
2021/12/28 05:48:09;;;;;;;2.13;0.70;;;;;;;12.26;65.67;95228.06;4891101;28;20209;-86
2021/12/28 05:50:35;;;;;;;2.30;0.60;;;;;;;12.41;65.39;95230.25;4898906;28;20377;-85
2021/12/28 05:53:00;;;;;;;0.70;0.40;;;;;;;12.40;65.59;95227.94;4910234;28;20275;-85
2021/12/28 05:55:25;;;;;;;0.52;0.32;;;;;;;12.49;65.41;95242.56;4893453;28;20205;-86
2021/12/28 05:57:51;;;;;;;1.52;0.30;;;;;;;12.12;66.05;95238.63;4894327;28;20175;-83
2021/12/28 06:00:17;;;;;;;1.02;0.47;;;;;;;12.26;65.36;95230.69;4876377;28;20218;-82
2021/12/28 06:02:45;;;;;;;2.28;0.45;;;;;;;12.32;65.50;95227.63;4872992;28;20652;-82
2021/12/28 06:05:10;;;;;;;1.25;0.30;;;;;;;12.39;65.67;95227.19;4892231;28;20821;-81
2021/12/28 06:07:36;;;;;;;1.20;0.20;;;;;;;12.35;65.10;95221.03;4892225;28;20335;-82
2021/12/28 06:10:02;;;;;;;0.55;0.30;;;;;;;11.94;66.99;95215.06;4907548;28;20202;-84
2021/12/28 06:12:28;;;;;;;0.77;0.30;;;;;;;12.12;65.64;95212.53;4892363;28;20270;-83
2021/12/28 06:14:53;;;;;;;0.30;0.20;;;;;;;12.05;66.46;95212.97;4911378;28;20186;-83
2021/12/28 06:17:19;;;;;;;0.68;0.25;;;;;;;12.20;66.29;95209.19;4904085;28;20729;-84
2021/12/28 06:19:45;;;;;;;0.45;0.30;;;;;;;12.20;66.40;95206.56;4892454;28;20660;-82
2021/12/28 06:22:10;;;;;;;0.75;0.20;;;;;;;12.14;66.29;95211.13;4876511;28;20190;-84
2021/12/28 06:24:35;;;;;;;0.80;0.40;;;;;;;12.03;67.01;95214.31;4908426;28;20163;-83
2021/12/28 06:27:01;;;;;;;0.45;0.20;;;;;;;12.29;66.53;95211.81;4886337;28;20715;-84
2021/12/28 06:29:26;;;;;;;1.85;0.35;;;;;;;12.33;66.07;95207.50;4891899;28;20089;-85
2021/12/28 06:31:52;;;;;;;0.60;0.30;;;;;;;12.31;66.20;95210.41;4891901;28;20708;-84
2021/12/28 06:34:17;;;;;;;1.30;0.20;;;;;;;12.25;66.29;95216.09;4908189;28;20117;-85
2021/12/28 06:36:43;;;;;;;0.30;0.30;;;;;;;12.17;66.63;95215.75;4893150;28;20243;-82
2021/12/28 06:39:09;;;;;;;0.40;0.38;;;;;;;12.14;67.03;95205.91;4892761;28;20205;-84
2021/12/28 06:41:35;;;;;;;0.80;0.30;;;;;;;12.02;66.84;95203.13;4892523;28;20205;-84
2021/12/28 06:44:00;;;;;;;0.55;0.55;;;;;;;12.27;66.96;95213.94;4926045;28;20273;-84
2021/12/28 06:46:26;;;;;;;0.52;0.30;;;;;;;12.31;66.53;95204.44;4876981;28;20261;-83
2021/12/28 06:48:51;;;;;;;0.90;0.30;;;;;;;12.37;66.26;95205.81;4907243;28;20644;-84
2021/12/28 06:51:17;;;;;;;1.95;0.40;;;;;;;12.38;66.93;95211.84;4913389;28;20178;-85
2021/12/28 06:53:42;;;;;;;1.95;0.68;;;;;;;12.46;66.08;95193.56;4892819;28;20186;-85
2021/12/28 06:56:08;;;;;;;1.33;0.40;;;;;;;12.29;67.28;95204.75;4913217;28;20288;-84
2021/12/28 06:58:34;;;;;;;2.63;0.50;;;;;;;12.18;67.51;95193.81;4908792;28;20273;-84
2021/12/28 07:01:00;;;;;;;1.08;0.45;;;;;;;12.37;66.74;95192.78;4891776;28;20282;-84
2021/12/28 07:03:25;;;;;;;0.95;0.30;;;;;;;12.38;67.24;95202.16;4893087;28;20713;-82
2021/12/28 07:05:51;;;;;;;1.45;0.50;;;;;;;12.30;67.28;95200.28;4876460;28;20631;-82
2021/12/28 07:08:16;;;;;;;1.75;0.30;;;;;;;12.36;66.95;95205.06;4898290;28;20208;-83
2021/12/28 07:10:42;;;;;;;2.85;0.50;;;;;;;12.50;66.45;95194.50;4908879;28;20349;-83
2021/12/28 07:13:08;;;;;;;0.98;0.30;;;;;;;12.38;67.17;95194.31;4876638;28;20277;-82
2021/12/28 07:15:34;;;;;;;1.27;0.40;;;;;;;12.50;66.77;95193.72;4907670;28;20189;-85
2021/12/28 07:17:59;;;;;;;0.80;0.40;;;;;;;12.40;67.34;95207.84;4890615;28;20280;-84
2021/12/28 07:20:26;;;;;;;1.05;0.30;;;;;;;12.39;67.69;95205.53;4890957;28;20538;-84
2021/12/28 07:22:51;;;;;;;1.85;0.40;;;;;;;12.41;67.12;95204.16;4899843;28;20170;-83
2021/12/28 07:25:16;;;;;;;1.80;0.50;;;;;;;12.52;66.50;95204.63;4896483;28;20237;-83
2021/12/28 07:27:42;;;;;;;1.55;0.40;;;;;;;12.68;66.74;95207.56;4896019;28;20206;-83
2021/12/28 07:30:11;;;;;;;0.40;0.20;;;;;;;12.44;67.40;95208.78;4896392;28;20276;-84
2021/12/28 07:32:36;;;;;;;0.45;0.20;;;;;;;12.60;67.01;95216.94;4911941;28;20733;-81
2021/12/28 07:35:02;;;;;;;0.50;0.40;;;;;;;12.67;66.17;95216.50;4879840;28;20288;-84
2021/12/28 07:37:28;;;;;;;1.08;0.30;;;;;;;12.68;66.59;95216.19;4880254;28;20174;-84
2021/12/28 07:39:53;;;;;;;2.67;0.60;;;;;;;12.60;67.21;95216.16;4879487;28;20205;-84
2021/12/28 07:42:20;;;;;;;0.93;0.40;;;;;;;12.82;66.61;95228.34;4911707;28;20683;-83
2021/12/28 07:44:45;;;;;;;0.52;0.32;;;;;;;12.72;67.24;95227.53;4879787;28;20253;-81
2021/12/28 07:47:10;;;;;;;1.25;0.32;;;;;;;12.70;67.22;95221.88;4895859;28;20214;-83
2021/12/28 07:49:39;;;;;;;0.60;0.45;;;;;;;12.87;67.25;95233.41;4895739;28;20209;-82
2021/12/28 07:52:05;;;;;;;0.95;0.30;;;;;;;12.67;67.72;95235.53;4911396;28;20237;-84
2021/12/28 07:54:30;;;;;;;0.43;0.40;;;;;;;12.85;67.55;95241.56;4894481;28;20213;-82
2021/12/28 07:56:56;;;;;;;1.02;0.30;;;;;;;12.91;67.37;95240.31;4895607;28;20682;-83
2021/12/28 07:59:21;;;;;;;0.30;0.30;;;;;;;12.98;67.21;95241.72;4909236;28;20209;-83
2021/12/28 08:01:46;;;;;;;0.30;0.30;;;;;;;12.77;68.05;95242.31;4901523;28;20220;-85
2021/12/28 08:04:12;;;;;;;0.60;0.30;;;;;;;13.15;66.89;95240.94;4885529;28;20353;-82
2021/12/28 08:06:37;;;;;;;0.40;0.32;;;;;;;13.10;66.81;95245.22;4906478;28;20647;-82
2021/12/28 08:09:03;;;;;;;0.80;0.30;;;;;;;12.74;68.89;95248.88;4878609;28;20179;-84
2021/12/28 08:11:29;;;;;;;0.30;0.30;;;;;;;13.16;67.28;95253.69;4879301;28;20183;-81
2021/12/28 08:13:54;;;;;;;0.70;0.40;;;;;;;13.11;66.92;95256.47;4895064;28;20257;-84
2021/12/28 08:16:20;;;;;;;0.57;0.20;;;;;;;13.15;67.57;95265.22;4872044;28;20405;-84
2021/12/28 08:18:45;;;;;;;1.27;0.40;;;;;;;13.40;66.92;95261.09;4873257;28;20208;-84
2021/12/28 08:21:11;;;;;;;0.70;0.40;;;;;;;13.26;67.44;95263.06;4895002;28;20254;-81
2021/12/28 08:23:36;;;;;;;0.68;0.32;;;;;;;13.33;67.12;95265.25;4895151;28;20261;-82
2021/12/28 08:26:02;;;;;;;0.30;0.30;;;;;;;13.38;67.15;95270.31;4876329;28;20196;-85
2021/12/28 08:28:29;;;;;;;0.85;0.40;;;;;;;13.44;66.74;95276.94;4894217;28;20198;-83
2021/12/28 08:30:56;;;;;;;0.73;0.40;;;;;;;13.26;67.25;95276.91;4891623;28;20241;-83
2021/12/28 08:33:22;;;;;;;0.75;0.40;;;;;;;13.55;67.09;95285.22;4876429;28;20217;-83
2021/12/28 08:35:47;;;;;;;0.60;0.55;;;;;;;13.44;66.51;95284.78;4892736;28;20217;-84
2021/12/28 08:38:13;;;;;;;0.40;0.30;;;;;;;13.41;67.55;95285.38;4878384;28;20221;-83
2021/12/28 08:40:40;;;;;;;0.85;0.60;;;;;;;13.59;67.00;95292.16;4893222;28;20237;-82
2021/12/28 08:43:07;;;;;;;0.80;0.50;;;;;;;13.48;67.38;95281.22;4894027;28;20176;-83
2021/12/28 08:45:33;;;;;;;1.80;0.45;;;;;;;13.49;67.13;95292.47;4894324;28;20280;-82
2021/12/28 08:47:58;;;;;;;1.02;0.40;;;;;;;13.57;67.09;95299.53;4893544;28;20205;-82
2021/12/28 08:50:24;;;;;;;0.30;0.30;;;;;;;13.42;67.21;95292.16;4894030;28;20237;-84
2021/12/28 08:52:50;;;;;;;0.95;0.50;;;;;;;13.78;66.69;95309.34;4892018;28;20322;-81
2021/12/28 08:55:19;;;;;;;1.00;0.55;;;;;;;13.26;68.07;95310.88;4877658;28;20281;-83
2021/12/28 08:57:44;;;;;;;0.70;0.70;;;;;;;13.48;67.90;95314.44;4893984;28;20256;-82
2021/12/28 09:00:14;;;;;;;1.58;0.60;;;;;;;13.22;68.44;95330.09;4890316;28;20703;-84
2021/12/28 09:02:40;;;;;;;0.80;0.47;;;;;;;13.36;68.52;95322.13;4894115;28;20167;-85
2021/12/28 09:05:06;;;;;;;0.47;0.47;;;;;;;13.46;67.69;95324.44;4879032;28;20793;-84
2021/12/28 09:07:31;;;;;;;1.05;0.55;;;;;;;13.28;68.54;95334.88;4878431;28;20214;-84
2021/12/28 09:09:57;;;;;;;0.60;0.55;;;;;;;13.49;68.31;95336.91;4893315;28;20632;-81
2021/12/28 09:12:23;;;;;;;0.80;0.55;;;;;;;13.74;67.56;95350.28;4881224;28;20198;-83
2021/12/28 09:14:48;;;;;;;0.60;0.50;;;;;;;13.82;67.23;95349.50;4874662;28;20277;-82
2021/12/28 09:17:14;;;;;;;0.57;0.57;;;;;;;13.77;67.36;95350.41;4908218;28;20152;-84
2021/12/28 09:19:39;;;;;;;0.70;0.60;;;;;;;13.92;66.83;95359.63;4909673;28;20185;-83
2021/12/28 09:22:05;;;;;;;0.95;0.50;;;;;;;13.90;66.97;95355.78;4873110;28;20303;-81
2021/12/28 09:24:31;;;;;;;1.25;0.77;;;;;;;13.72;67.87;95366.28;4909859;28;20245;-83
2021/12/28 09:26:56;;;;;;;1.65;0.50;;;;;;;14.01;66.61;95359.63;4878201;28;20366;-82
2021/12/28 09:29:25;;;;;;;1.08;0.70;;;;;;;13.79;67.42;95368.41;4874204;28;20253;-81
2021/12/28 09:31:52;;;;;;;2.13;0.90;;;;;;;13.03;69.96;95367.72;4913958;28;20194;-82
2021/12/28 09:34:17;;;;;;;1.02;0.73;;;;;;;13.30;69.31;95368.53;4876917;28;20273;-82
2021/12/28 09:36:43;;;;;;;1.10;0.88;;;;;;;13.66;68.17;95370.13;4889831;28;20635;-83
2021/12/28 09:39:09;;;;;;;0.82;0.65;;;;;;;13.58;68.38;95386.59;4904956;28;20280;-83
2021/12/28 09:41:34;;;;;;;1.10;0.90;;;;;;;13.84;67.78;95389.94;4889763;28;20200;-82
2021/12/28 09:44:00;;;;;;;1.02;0.80;;;;;;;14.05;66.75;95391.94;4908006;28;20665;-82
2021/12/28 09:46:25;;;;;;;1.20;0.90;;;;;;;14.14;66.63;95394.56;4875492;28;20256;-81
2021/12/28 09:48:50;;;;;;;0.95;0.68;;;;;;;14.17;66.31;95388.69;4908818;28;20624;-82
2021/12/28 09:51:16;;;;;;;0.73;0.60;;;;;;;14.04;66.88;95393.78;4909267;28;20296;-82
2021/12/28 09:53:43;;;;;;;0.80;0.68;;;;;;;14.02;66.83;95395.94;4893176;28;20209;-81
2021/12/28 09:56:08;;;;;;;1.85;0.70;;;;;;;14.07;66.78;95392.41;4891484;28;20206;-82
2021/12/28 09:58:36;;;;;;;0.90;0.90;;;;;;;14.08;66.60;95390.56;4908848;28;20654;-81
2021/12/28 10:01:03;;;;;;;1.17;0.80;;;;;;;14.27;66.07;95396.22;4877093;28;20146;-81
2021/12/28 10:03:29;;;;;;;1.60;1.20;;;;;;;14.08;66.40;95386.09;4885817;28;20133;-82
2021/12/28 10:05:54;;;;;;;1.00;0.90;;;;;;;14.16;66.27;95387.94;4909198;28;20237;-82
2021/12/28 10:08:23;;;;;;;1.10;0.95;;;;;;;14.05;66.67;95387.50;4896933;28;20218;-81
2021/12/28 10:10:49;;;;;;;1.30;1.20;;;;;;;14.18;66.48;95380.53;4902194;28;20305;-83
2021/12/28 10:13:20;;;;;;;1.45;1.10;;;;;;;14.10;66.41;95396.25;4888867;28;20531;-82
2021/12/28 10:15:48;;;;;;;1.65;0.80;;;;;;;14.14;66.54;95387.47;4909081;28;20320;-81
2021/12/28 10:18:14;;;;;;;0.77;0.70;;;;;;;14.32;66.18;95382.19;4890339;28;20269;-81
2021/12/28 10:20:41;;;;;;;1.80;0.80;;;;;;;14.17;67.10;95372.97;4892635;28;20369;-81
2021/12/28 10:23:13;;;;;;;1.20;0.73;;;;;;;14.11;66.78;95382.09;4908584;28;20804;-80
2021/12/28 10:25:42;;;;;;;0.50;0.50;;;;;;;14.27;66.19;95382.38;4907105;28;20440;-81
2021/12/28 10:28:11;;;;;;;0.50;0.40;;;;;;;14.42;65.60;95385.25;4904103;28;20223;-81
2021/12/28 10:30:44;;;;;;;0.95;0.50;;;;;;;14.21;66.26;95379.16;4896210;28;20736;-82
2021/12/28 10:33:13;;;;;;;0.63;0.47;;;;;;;14.40;66.34;95376.94;4891603;28;20625;-81
2021/12/28 10:35:42;;;;;;;0.68;0.50;;;;;;;14.24;66.73;95375.91;4891721;28;20277;-81
2021/12/28 10:38:11;;;;;;;0.60;0.60;;;;;;;14.25;66.36;95374.81;4908490;28;20753;-82
2021/12/28 10:40:40;;;;;;;1.13;0.63;;;;;;;14.28;66.73;95376.06;4897403;28;20363;-81
2021/12/28 10:43:17;;;;;;;1.70;0.60;;;;;;;14.22;67.04;95384.06;4874813;28;20202;-83
2021/12/28 10:46:05;;;;;;;1.48;0.68;;;;;;;14.08;67.51;95374.84;4892431;28;20233;-83
2021/12/28 10:48:38;;;;;;;1.33;0.63;;;;;;;14.03;67.12;95370.53;4906294;28;20750;-83
2021/12/28 10:51:08;;;;;;;0.60;0.57;;;;;;;14.21;67.13;95366.06;4892837;28;20733;-82
2021/12/28 10:56:25;;;;;;;3.25;1.10;;;;;;;14.35;66.58;95368.50;4893446;28;20190;-82
2021/12/28 10:58:51;;;;;;;3.05;0.73;;;;;;;14.36;66.96;95364.78;4911475;28;20285;-83
2021/12/28 11:01:18;;;;;;;2.25;0.80;;;;;;;14.08;67.85;95369.63;4896833;28;20210;-82
2021/12/28 11:03:49;;;;;;;0.98;0.60;;;;;;;14.21;67.09;95368.69;4878350;28;20186;-83
2021/12/28 11:06:21;;;;;;;1.67;0.70;;;;;;;14.10;67.77;95357.00;4880116;28;20707;-84
2021/12/28 11:08:49;;;;;;;1.00;0.60;;;;;;;13.97;67.70;95353.50;4912016;28;20284;-83
2021/12/28 11:11:17;;;;;;;1.33;0.65;;;;;;;14.29;67.22;95367.91;4895995;28;20206;-82
2021/12/28 11:13:45;;;;;;;2.30;0.57;;;;;;;14.28;66.76;95353.25;4896194;28;20367;-82
2021/12/28 11:16:11;;;;;;;1.92;0.75;;;;;;;14.14;67.34;95347.47;4895361;28;20170;-82
2021/12/28 11:18:48;;;;;;;3.40;0.70;;;;;;;14.28;66.61;95358.50;4884589;28;20407;-83
2021/12/28 11:21:51;;;;;;;1.10;0.57;;;;;;;14.10;67.81;95357.00;4895613;28;20191;-83
2021/12/28 11:24:17;;;;;;;1.20;0.57;;;;;;;14.10;67.80;95357.00;4909586;28;20269;-83
2021/12/28 11:26:48;;;;;;;1.15;0.60;;;;;;;13.94;68.32;95357.47;4891007;28;20137;-83
2021/12/28 11:29:22;;;;;;;1.65;0.70;;;;;;;14.01;67.78;95359.63;4876676;28;20601;-82
2021/12/28 11:31:50;;;;;;;2.65;0.50;;;;;;;14.37;66.93;95356.59;4911127;28;20280;-81
2021/12/28 11:34:34;;;;;;;0.82;0.40;;;;;;;14.39;66.85;95346.63;4910442;28;20197;-83